Time;durP1;ratioP1;P1;durP2;ratioP2;P2;SDS_P1;SDS_P2;PMS_P1;PMS_P2;Temp;Humidity;BMP_temperature;BMP_pressure;BME280_temperature;BME280_humidity;BME280_pressure;Samples;Min_cycle;Max_cycle;Signal;HPM_P1;HPM_P2
2023/02/07 00:00:42;;;;;;;;;19.25;17.25;;;;;5.46;100.00;103128.59;5098588;27;45431;-73
2023/02/07 00:03:07;;;;;;;;;20.50;18.50;;;;;5.41;100.00;103128.84;5099704;27;46170;-73
2023/02/07 00:05:35;;;;;;;;;21.75;18.00;;;;;5.46;100.00;103133.88;5099926;27;45316;-73
2023/02/07 00:08:00;;;;;;;;;20.00;18.67;;;;;5.42;100.00;103130.56;5101118;27;45349;-73
2023/02/07 00:10:26;;;;;;;;;23.00;20.75;;;;;5.34;100.00;103135.38;5095081;27;45268;-73
2023/02/07 00:12:51;;;;;;;;;21.75;21.00;;;;;5.29;100.00;103128.56;5096872;27;45162;-73
2023/02/07 00:15:17;;;;;;;;;24.50;21.25;;;;;5.27;100.00;103125.13;5099561;27;49616;-73
2023/02/07 00:17:42;;;;;;;;;19.75;17.50;;;;;5.25;100.00;103118.25;5099442;27;45249;-73
2023/02/07 00:20:08;;;;;;;;;21.00;17.50;;;;;5.17;100.00;103106.31;5099790;27;45468;-73
2023/02/07 00:22:33;;;;;;;;;22.50;19.75;;;;;5.18;100.00;103115.09;5099163;27;45233;-73
2023/02/07 00:24:59;;;;;;;;;18.75;16.75;;;;;5.20;100.00;103115.00;5097850;27;47157;-73
2023/02/07 00:27:24;;;;;;;;;19.00;18.25;;;;;5.17;100.00;103110.72;5099324;27;45330;-73
2023/02/07 00:29:49;;;;;;;;;19.75;16.75;;;;;5.16;100.00;103106.41;5099594;27;45267;-73
2023/02/07 00:32:15;;;;;;;;;23.25;18.25;;;;;5.13;100.00;103102.16;5096155;27;45255;-73
2023/02/07 00:34:40;;;;;;;;;21.00;19.00;;;;;5.12;100.00;103095.16;5088963;27;45434;-73
2023/02/07 00:37:06;;;;;;;;;22.25;18.25;;;;;6.23;100.00;103091.91;5097820;27;45329;-73
2023/02/07 00:39:32;;;;;;;;;17.00;16.50;;;;;6.39;100.00;103101.56;5099534;27;45406;-73
2023/02/07 00:41:58;;;;;;;;;19.00;17.50;;;;;5.34;100.00;103101.94;5099282;27;45412;-73
2023/02/07 00:44:23;;;;;;;;;16.75;14.50;;;;;5.23;100.00;103099.88;5099169;27;46296;-73
2023/02/07 00:46:48;;;;;;;;;18.00;17.00;;;;;5.15;100.00;103102.91;5097859;27;45352;-73
2023/02/07 00:49:14;;;;;;;;;18.75;17.25;;;;;5.12;100.00;103094.31;5099395;27;45317;-73
2023/02/07 00:51:39;;;;;;;;;18.75;18.00;;;;;5.13;100.00;103088.09;5099128;27;45437;-74
2023/02/07 00:54:05;;;;;;;;;19.00;18.00;;;;;5.12;100.00;103097.78;5100195;27;45428;-73
2023/02/07 00:56:32;;;;;;;;;17.25;14.75;;;;;5.07;100.00;103091.06;5100912;27;45329;-73
2023/02/07 00:58:59;;;;;;;;;17.00;16.50;;;;;5.06;100.00;103092.84;5102677;27;45294;-73
2023/02/07 01:01:26;;;;;;;;;17.00;14.75;;;;;5.04;100.00;103098.22;5102393;27;45308;-73
2023/02/07 01:03:52;;;;;;;;;19.25;17.75;;;;;5.04;100.00;103089.44;5102427;27;46046;-73
2023/02/07 01:06:18;;;;;;;;;17.00;14.50;;;;;5.03;100.00;103085.94;5103465;27;45521;-73
2023/02/07 01:08:44;;;;;;;;;19.00;14.00;;;;;5.04;100.00;103089.44;5102766;27;45353;-73
2023/02/07 01:11:12;;;;;;;;;18.50;14.00;;;;;5.07;100.00;103091.06;5102353;27;45322;-73
2023/02/07 01:13:38;;;;;;;;;16.75;14.75;;;;;5.05;100.00;103088.50;5101160;27;48125;-73
2023/02/07 01:16:04;;;;;;;;;21.50;17.50;;;;;4.99;100.00;103080.91;5102175;27;45175;-73
2023/02/07 01:18:30;;;;;;;;;21.50;17.25;;;;;4.96;100.00;103087.19;5097853;27;45960;-73
2023/02/07 01:20:55;;;;;;;;;22.25;20.25;;;;;4.90;100.00;103080.47;5099828;27;45391;-73
2023/02/07 01:23:21;;;;;;;;;17.75;16.50;;;;;4.89;100.00;103086.66;5100732;27;47184;-73
2023/02/07 01:25:46;;;;;;;;;17.67;16.00;;;;;4.86;100.00;103091.22;5101996;27;45438;-74
2023/02/07 01:28:13;;;;;;;;;16.25;16.25;;;;;4.85;100.00;103093.00;5102457;27;45391;-73
2023/02/07 01:30:42;;;;;;;;;16.00;15.25;;;;;4.82;100.00;103082.63;5100470;27;47237;-73
2023/02/07 01:33:08;;;;;;;;;17.00;15.00;;;;;4.74;100.00;103088.31;5102050;27;45302;-74
2023/02/07 01:35:34;;;;;;;;;21.00;17.75;;;;;4.74;100.00;103092.72;5100500;27;45449;-73
2023/02/07 01:38:01;;;;;;;;;22.00;17.00;;;;;4.72;100.00;103086.66;5102141;27;45424;-73
2023/02/07 01:40:27;;;;;;;;;17.00;16.00;;;;;4.66;100.00;103091.31;5100135;27;46283;-73
2023/02/07 01:42:52;;;;;;;;;16.00;13.75;;;;;4.59;100.00;103096.97;5101702;27;45356;-73
2023/02/07 01:45:27;;;;;;;;;20.75;16.00;;;;;4.51;100.00;103089.44;5101633;27;46871;-73
2023/02/07 01:47:54;;;;;;;;;18.25;18.25;;;;;4.45;100.00;103095.84;5102122;27;45358;-73
2023/02/07 01:50:21;;;;;;;;;17.50;15.75;;;;;4.42;100.00;103096.88;5101687;27;45503;-73
2023/02/07 01:52:47;;;;;;;;;17.25;16.00;;;;;4.40;100.00;103097.88;5097048;27;47213;-73
2023/02/07 01:55:19;;;;;;;;;15.50;15.25;;;;;4.40;100.00;103095.25;5087763;27;45283;-73
2023/02/07 01:57:45;;;;;;;;;18.25;16.75;;;;;4.37;100.00;103095.41;5101640;27;45276;-73
2023/02/07 02:00:14;;;;;;;;;24.25;21.75;;;;;4.35;100.00;103089.34;5100274;27;47010;-73
2023/02/07 02:02:39;;;;;;;;;18.50;14.75;;;;;4.32;100.00;103089.50;5098065;27;47353;-73
2023/02/07 02:05:06;;;;;;;;;16.50;16.00;;;;;4.33;100.00;103084.16;5101677;27;45377;-73
2023/02/07 02:07:34;;;;;;;;;17.25;16.25;;;;;4.33;100.00;103089.41;5100456;27;45383;-73
2023/02/07 02:09:59;;;;;;;;;17.00;14.50;;;;;4.38;100.00;103083.94;5101233;27;45407;-74
2023/02/07 02:12:47;;;;;;;;;19.25;18.75;;;;;4.37;100.00;103071.69;5101187;27;47303;-73
2023/02/07 02:15:31;;;;;;;;;19.25;16.00;;;;;4.35;100.00;103074.41;5101539;27;45413;-73
2023/02/07 02:18:42;;;;;;;;;22.75;20.50;;;;;4.29;100.00;103067.63;5100017;27;45477;-74
2023/02/07 02:21:39;;;;;;;;;20.75;16.75;;;;;4.34;100.00;103064.78;5041104;28;46215;-74
2023/02/07 02:24:28;;;;;;;;;23.00;16.25;;;;;4.31;100.00;103054.41;5076817;27;48291;-73
2023/02/07 02:27:11;;;;;;;;;15.00;15.00;;;;;4.30;100.00;103065.88;5099835;27;45389;-73
2023/02/07 02:30:06;;;;;;;;;18.75;16.50;;;;;4.29;100.00;103066.81;5101514;27;45305;-73
2023/02/07 02:33:04;;;;;;;;;20.75;15.75;;;;;4.25;100.00;103060.00;5060517;27;45444;-73
2023/02/07 02:35:33;;;;;;;;;15.25;13.25;;;;;4.28;100.00;103070.38;5098337;27;46222;-73
2023/02/07 02:38:14;;;;;;;;;16.25;15.00;;;;;4.25;100.00;103070.53;5101092;27;45324;-73
2023/02/07 02:40:50;;;;;;;;;20.25;17.75;;;;;4.25;100.00;103067.88;5100782;27;45230;-73
2023/02/07 02:43:26;;;;;;;;;22.50;18.00;;;;;4.20;100.00;103057.59;5100783;27;45476;-73
2023/02/07 02:46:00;;;;;;;;;18.00;18.00;;;;;4.21;100.00;103061.91;5099536;27;48517;-73
2023/02/07 02:48:27;;;;;;;;;14.75;10.75;;;;;4.19;100.00;103061.13;5100681;27;45289;-73
2023/02/07 02:50:54;;;;;;;;;18.50;16.75;;;;;4.15;100.00;103049.91;5099600;27;45388;-73
2023/02/07 02:53:20;;;;;;;;;16.00;16.00;;;;;4.12;100.00;103039.53;5095935;27;46160;-73
2023/02/07 02:56:13;;;;;;;;;14.50;12.75;;;;;4.12;100.00;103038.66;5089590;27;47732;-74
2023/02/07 02:58:47;;;;;;;;;16.00;16.00;;;;;4.11;100.00;103036.97;5100701;27;45316;-73
2023/02/07 03:01:47;;;;;;;;;16.00;16.00;;;;;4.14;100.00;103036.81;5100823;27;45452;-73
2023/02/07 03:04:41;;;;;;;;;13.50;11.00;;;;;4.15;100.00;103042.00;5100564;27;45263;-73
2023/02/07 03:07:36;;;;;;;;;20.00;17.75;;;;;4.13;100.00;103035.94;5101635;27;45449;-74
2023/02/07 03:10:12;;;;;;;;;14.25;14.25;;;;;4.10;100.00;103041.38;5088536;27;45283;-73
2023/02/07 03:12:56;;;;;;;;;18.50;16.75;;;;;4.05;100.00;103024.97;5100557;27;45365;-73
2023/02/07 03:15:40;;;;;;;;;15.75;12.00;;;;;4.02;100.00;103028.59;5100517;27;45409;-73
2023/02/07 03:18:20;;;;;;;;;15.25;12.75;;;;;3.96;100.00;103013.09;5099853;27;45278;-73
2023/02/07 03:21:11;;;;;;;;;17.75;16.00;;;;;3.98;100.00;103032.28;5086334;27;45304;-73
2023/02/07 03:23:37;;;;;;;;;15.00;14.75;;;;;3.99;100.00;103041.03;5100731;27;45244;-73
2023/02/07 03:26:04;;;;;;;;;20.75;18.75;;;;;4.00;100.00;103053.25;5099868;27;45522;-73
2023/02/07 03:28:32;;;;;;;;;14.50;13.25;;;;;3.95;100.00;103047.38;5087110;27;45460;-73
2023/02/07 03:31:01;;;;;;;;;14.50;14.50;;;;;3.96;100.00;103044.69;5100072;27;45288;-73
2023/02/07 03:33:27;;;;;;;;;19.25;15.75;;;;;3.96;100.00;103043.81;5098949;27;45352;-73
2023/02/07 03:36:09;;;;;;;;;13.75;12.00;;;;;4.01;100.00;103047.09;5100135;27;45740;-73
2023/02/07 03:38:36;;;;;;;;;14.00;13.25;;;;;4.04;100.00;103068.84;5099971;27;46361;-73
2023/02/07 03:41:09;;;;;;;;;18.25;16.25;;;;;4.06;100.00;103057.38;5100137;27;45363;-73
2023/02/07 03:43:38;;;;;;;;;17.25;12.50;;;;;4.06;100.00;103057.38;5099973;27;45240;-73
2023/02/07 03:46:07;;;;;;;;;18.25;17.75;;;;;4.06;100.00;103055.59;5100157;27;45339;-73
2023/02/07 03:48:32;;;;;;;;;17.25;16.50;;;;;4.04;100.00;103053.03;5099709;27;45370;-73
2023/02/07 03:50:58;;;;;;;;;16.00;16.00;;;;;4.04;100.00;103062.72;5099832;27;50549;-73
2023/02/07 03:53:23;;;;;;;;;13.75;13.75;;;;;4.01;100.00;103061.09;5099743;27;45296;-73
2023/02/07 03:55:48;;;;;;;;;15.50;13.75;;;;;3.95;100.00;103065.81;5087881;27;49154;-73
2023/02/07 03:58:14;;;;;;;;;19.00;16.50;;;;;3.89;100.00;103052.00;5097944;27;45375;-73
2023/02/07 04:00:39;;;;;;;;;18.00;15.00;;;;;3.86;100.00;103051.31;5099915;27;45309;-73
2023/02/07 04:03:05;;;;;;;;;16.25;13.50;;;;;4.87;100.00;103048.97;5099677;27;45321;-73
2023/02/07 04:05:30;;;;;;;;;18.25;14.50;;;;;5.17;100.00;103055.34;5099923;27;45491;-73
2023/02/07 04:07:56;;;;;;;;;13.50;11.75;;;;;3.97;100.00;103056.91;5100571;27;45221;-73
2023/02/07 04:10:21;;;;;;;;;14.25;13.00;;;;;3.81;100.00;103063.81;5099612;27;45227;-73
2023/02/07 04:12:46;;;;;;;;;16.00;15.75;;;;;3.70;100.00;103062.53;5099642;27;45313;-73
2023/02/07 04:15:12;;;;;;;;;12.25;11.75;;;;;3.66;100.00;103064.44;5100016;27;45340;-72
2023/02/07 04:17:38;;;;;;;;;15.25;14.25;;;;;3.61;100.00;103062.97;5098183;27;47397;-72
2023/02/07 04:20:04;;;;;;;;;16.75;16.00;;;;;3.51;100.00;103052.03;5098422;27;45440;-72
2023/02/07 04:22:30;;;;;;;;;15.00;14.75;;;;;3.76;100.00;103058.75;5099108;27;45280;-72
2023/02/07 04:24:55;;;;;;;;;21.00;18.25;;;;;4.41;100.00;103062.72;5097982;27;46255;-72
2023/02/07 04:27:21;;;;;;;;;16.50;15.75;;;;;3.86;100.00;103070.56;5099473;27;45402;-72
2023/02/07 04:29:46;;;;;;;;;15.50;11.50;;;;;3.72;100.00;103073.00;5101722;27;45314;-73
2023/02/07 04:32:12;;;;;;;;;16.00;15.00;;;;;4.38;100.00;103068.13;5103295;27;45654;-72
2023/02/07 04:34:37;;;;;;;;;17.00;17.00;;;;;3.85;100.00;103071.50;5103196;27;45396;-72
2023/02/07 04:37:02;;;;;;;;;17.25;15.00;;;;;4.01;100.00;103062.88;5101274;27;46296;-73
2023/02/07 04:39:28;;;;;;;;;15.75;12.75;;;;;3.79;100.00;103063.88;5101490;27;45399;-72
2023/02/07 04:41:53;;;;;;;;;15.50;14.50;;;;;3.78;100.00;103080.59;5103252;27;45328;-72
2023/02/07 04:44:18;;;;;;;;;20.50;19.50;;;;;4.14;100.00;103078.94;5101473;27;46299;-72
2023/02/07 04:46:44;;;;;;;;;12.25;12.25;;;;;4.90;100.00;103071.69;5100250;27;45478;-72
2023/02/07 04:49:09;;;;;;;;;14.50;14.50;;;;;3.89;100.00;103064.31;5082660;27;49674;-72
2023/02/07 04:51:34;;;;;;;;;21.25;17.00;;;;;3.85;100.00;103060.97;5082069;27;45524;-73
2023/02/07 04:54:00;;;;;;;;;17.75;17.75;;;;;5.09;100.00;103053.13;5081927;27;45334;-72
2023/02/07 04:56:25;;;;;;;;;16.00;16.00;;;;;5.00;100.00;103074.72;5082631;27;46199;-72
2023/02/07 04:58:51;;;;;;;;;17.25;15.25;;;;;5.16;100.00;103083.53;5081559;27;45271;-73
2023/02/07 05:01:16;;;;;;;;;18.50;16.00;;;;;4.02;100.00;103080.38;5083079;27;45219;-73
2023/02/07 05:03:42;;;;;;;;;15.75;14.50;;;;;3.76;100.00;103082.44;5082865;27;45183;-73
2023/02/07 05:06:07;;;;;;;;;18.25;16.25;;;;;3.68;100.00;103087.22;5090069;27;45398;-72
2023/02/07 05:08:34;;;;;;;;;18.75;18.00;;;;;3.61;100.00;103081.38;5123993;27;45140;-72
2023/02/07 05:11:00;;;;;;;;;19.75;14.50;;;;;3.56;100.00;103080.75;5098392;27;45786;-72
2023/02/07 05:13:25;;;;;;;;;30.75;28.00;;;;;3.46;100.00;103083.78;5091017;27;45287;-72
2023/02/07 05:15:50;;;;;;;;;30.75;29.75;;;;;3.50;100.00;103084.50;5102605;27;45344;-73
2023/02/07 05:18:16;;;;;;;;;26.00;24.75;;;;;3.51;100.00;103088.84;5102658;27;45347;-72
2023/02/07 05:20:42;;;;;;;;;27.75;27.25;;;;;3.56;100.00;103099.97;5102557;27;45294;-72
2023/02/07 05:23:07;;;;;;;;;23.50;19.00;;;;;3.55;100.00;103093.03;5101425;27;45478;-72
2023/02/07 05:25:32;;;;;;;;;22.50;17.25;;;;;3.52;100.00;103086.13;5101074;27;46133;-72
2023/02/07 05:27:58;;;;;;;;;26.25;22.25;;;;;3.48;100.00;103083.72;5101129;27;45363;-72
2023/02/07 05:30:23;;;;;;;;;28.00;26.00;;;;;3.48;100.00;103091.59;5101387;27;45309;-72
2023/02/07 05:33:03;;;;;;;;;25.00;20.00;;;;;3.42;100.00;103092.75;5096484;27;46441;-72
2023/02/07 05:35:38;;;;;;;;;18.50;18.25;;;;;3.38;100.00;103081.50;5094703;27;46044;-72
2023/02/07 05:38:06;;;;;;;;;20.50;18.00;;;;;3.32;100.00;103073.88;5101168;27;45287;-72
2023/02/07 05:40:32;;;;;;;;;18.25;16.00;;;;;3.39;100.00;103079.72;5100453;27;45645;-71
2023/02/07 05:42:57;;;;;;;;;19.00;16.75;;;;;3.36;100.00;103064.94;5100996;27;45325;-72
2023/02/07 05:45:23;;;;;;;;;16.00;14.00;;;;;3.41;100.00;103069.97;5100840;27;49786;-72
2023/02/07 05:47:48;;;;;;;;;34.75;27.75;;;;;3.43;100.00;103088.31;5100905;27;45451;-75
2023/02/07 05:50:14;;;;;;;;;59.00;47.00;;;;;3.44;100.00;103090.03;5096455;27;45357;-72
2023/02/07 05:52:39;;;;;;;;;43.75;38.50;;;;;3.43;100.00;103096.19;5096037;27;45482;-72
2023/02/07 05:55:05;;;;;;;;;48.25;41.25;;;;;3.38;100.00;103092.00;5099337;27;46637;-72
2023/02/07 05:57:30;;;;;;;;;47.50;41.25;;;;;3.34;100.00;103087.81;5100313;27;45511;-72
2023/02/07 05:59:56;;;;;;;;;29.50;25.00;;;;;3.37;100.00;103092.06;5096788;27;45359;-72
2023/02/07 06:02:21;;;;;;;;;19.00;15.00;;;;;3.38;100.00;103096.44;5091479;27;45377;-72
2023/02/07 06:04:46;;;;;;;;;19.25;15.25;;;;;3.40;100.00;103105.09;5081440;27;45283;-72
2023/02/07 06:07:12;;;;;;;;;19.50;15.75;;;;;3.37;100.00;103106.09;5093029;27;45336;-72
2023/02/07 06:09:37;;;;;;;;;21.75;16.25;;;;;3.45;100.00;103105.75;5099007;27;45343;-74
2023/02/07 06:12:02;;;;;;;;;19.25;18.75;;;;;3.40;100.00;103095.44;5097475;27;45563;-73
2023/02/07 06:14:28;;;;;;;;;19.25;17.25;;;;;3.44;100.00;103095.31;5079747;27;45255;-73
2023/02/07 06:16:53;;;;;;;;;18.75;17.25;;;;;3.41;100.00;103088.38;5094857;27;45286;-76
2023/02/07 06:19:18;;;;;;;;;16.75;16.00;;;;;3.41;100.00;103097.13;5100159;27;45193;-77
2023/02/07 06:21:44;;;;;;;;;19.00;16.50;;;;;3.42;100.00;103100.63;5059758;27;1142592;-75
2023/02/07 06:24:09;;;;;;;;;18.25;17.00;;;;;3.43;100.00;103102.31;5100979;27;45415;-75
2023/02/07 06:26:34;;;;;;;;;18.75;14.75;;;;;3.41;100.00;103102.38;5101047;27;45339;-75
2023/02/07 06:29:00;;;;;;;;;15.25;14.50;;;;;3.44;100.00;103113.72;5101434;27;45389;-74
2023/02/07 06:31:25;;;;;;;;;17.50;16.25;;;;;3.41;100.00;103112.03;5101124;27;45516;-72
2023/02/07 06:33:50;;;;;;;;;17.00;16.50;;;;;3.41;100.00;103112.03;5101358;27;46011;-73
2023/02/07 06:36:16;;;;;;;;;24.00;22.50;;;;;3.41;100.00;103112.91;5100797;27;45346;-73
2023/02/07 06:38:41;;;;;;;;;18.50;15.00;;;;;3.37;100.00;103116.59;5101561;27;45413;-73
2023/02/07 06:41:10;;;;;;;;;16.50;14.75;;;;;3.37;100.00;103124.50;5100983;27;45238;-74
2023/02/07 06:43:38;;;;;;;;;15.25;14.75;;;;;3.42;100.00;103121.66;5100855;27;45329;-72
2023/02/07 06:46:03;;;;;;;;;15.25;15.25;;;;;3.41;100.00;103126.06;5095961;27;45992;-72
2023/02/07 06:48:29;;;;;;;;;22.75;17.75;;;;;3.41;100.00;103118.16;5093853;27;45262;-72
2023/02/07 06:50:54;;;;;;;;;19.00;18.00;;;;;3.38;100.00;103113.03;5100609;27;45393;-72
2023/02/07 06:53:19;;;;;;;;;18.25;18.25;;;;;3.40;100.00;103121.72;5095696;27;46969;-72
2023/02/07 06:55:45;;;;;;;;;19.00;17.75;;;;;3.39;100.00;103125.25;5098527;27;45394;-72
2023/02/07 06:58:10;;;;;;;;;15.75;15.75;;;;;3.37;100.00;103126.25;5100981;27;45367;-72
2023/02/07 07:00:35;;;;;;;;;33.50;32.75;;;;;3.33;100.00;103116.81;5098322;27;45446;-75
2023/02/07 07:03:01;;;;;;;;;31.75;29.75;;;;;3.35;100.00;103131.56;5100779;27;45336;-74
2023/02/07 07:05:28;;;;;;;;;58.75;48.25;;;;;3.39;100.00;103127.06;5100618;27;45307;-74
2023/02/07 07:07:54;;;;;;;;;98.25;82.50;;;;;3.38;100.00;103120.09;5096701;27;45334;-74
2023/02/07 07:10:19;;;;;;;;;41.25;37.50;;;;;3.39;100.00;103125.25;5097900;27;45566;-74
2023/02/07 07:12:47;;;;;;;;;56.75;45.75;;;;;3.38;100.00;103123.56;5100596;27;45364;-75
2023/02/07 07:15:13;;;;;;;;;30.00;23.75;;;;;3.38;100.00;103127.97;5100673;27;45221;-74
2023/02/07 07:17:38;;;;;;;;;63.50;52.25;;;;;3.35;100.00;103128.94;5099213;27;45349;-74
2023/02/07 07:20:06;;;;;;;;;66.75;52.00;;;;;3.37;100.00;103121.88;5095755;27;46220;-75
2023/02/07 07:22:32;;;;;;;;;89.00;67.25;;;;;3.39;100.00;103129.69;5097493;27;46109;-75
2023/02/07 07:24:57;;;;;;;;;98.25;82.25;;;;;3.38;100.00;103123.56;5100420;27;45359;-74
2023/02/07 07:27:22;;;;;;;;;93.75;76.75;;;;;3.39;100.00;103125.25;5095695;27;46930;-74
2023/02/07 07:29:48;;;;;;;;;73.25;56.75;;;;;3.42;100.00;103124.28;5090852;27;45334;-74
2023/02/07 07:32:14;;;;;;;;;91.75;73.25;;;;;3.39;100.00;103120.00;5095441;27;49656;-74
2023/02/07 07:34:40;;;;;;;;;101.75;84.75;;;;;3.47;100.00;103124.09;5089020;27;45832;-74
2023/02/07 07:37:05;;;;;;;;;52.25;40.75;;;;;3.47;100.00;103129.34;5099994;27;45633;-74
2023/02/07 07:39:30;;;;;;;;;88.50;67.75;;;;;3.48;100.00;103131.03;5100153;27;45558;-74
2023/02/07 07:41:56;;;;;;;;;58.00;44.00;;;;;3.42;100.00;103134.81;5099985;27;45237;-74
2023/02/07 07:44:21;;;;;;;;;87.00;67.25;;;;;3.47;100.00;103138.06;5100049;27;45251;-74
2023/02/07 07:46:46;;;;;;;;;41.75;37.00;;;;;3.51;100.00;103144.91;5100238;27;45282;-74
2023/02/07 07:49:12;;;;;;;;;55.25;46.00;;;;;3.51;100.00;103147.53;5099185;27;45520;-74
2023/02/07 07:51:37;;;;;;;;;38.25;32.75;;;;;3.51;100.00;103154.59;5086968;27;45982;-73
2023/02/07 07:54:02;;;;;;;;;18.50;16.50;;;;;3.52;100.00;103151.88;5097897;27;45290;-74
2023/02/07 07:56:28;;;;;;;;;10.75;10.25;;;;;3.51;100.00;103149.31;5098401;27;45333;-73
2023/02/07 07:58:54;;;;;;;;;16.75;14.00;;;;;3.54;100.00;103157.91;5098707;27;45248;-73
2023/02/07 08:01:20;;;;;;;;;21.50;20.25;;;;;3.51;100.00;103151.94;5098768;27;45633;-73
2023/02/07 08:03:45;;;;;;;;;22.50;18.75;;;;;3.53;100.00;103164.09;5098674;27;45418;-74
2023/02/07 08:06:10;;;;;;;;;24.25;19.50;;;;;3.56;100.00;103168.38;5098838;27;45366;-73
2023/02/07 08:08:36;;;;;;;;;14.00;12.50;;;;;3.55;100.00;103171.94;5098902;27;45436;-74
2023/02/07 08:11:03;;;;;;;;;15.00;15.00;;;;;3.52;100.00;103164.16;5097047;27;47359;-74
2023/02/07 08:13:28;;;;;;;;;19.25;18.25;;;;;3.58;100.00;103173.56;5098760;27;45337;-74
2023/02/07 08:15:54;;;;;;;;;36.75;28.25;;;;;3.61;100.00;103168.16;5098747;27;45477;-74
2023/02/07 08:18:19;;;;;;;;;38.50;36.50;;;;;3.61;100.00;103166.41;5098077;27;46823;-74
2023/02/07 08:20:44;;;;;;;;;39.50;34.75;;;;;3.68;100.00;103160.88;5094005;27;47205;-74
2023/02/07 08:23:10;;;;;;;;;76.50;56.50;;;;;3.71;100.00;103160.72;5087554;27;45344;-75
2023/02/07 08:25:36;;;;;;;;;91.50;73.50;;;;;3.75;100.00;103176.31;5082921;27;45255;-76
2023/02/07 08:28:01;;;;;;;;;78.25;59.00;;;;;3.79;100.00;103179.63;5091212;27;45287;-74
2023/02/07 08:30:27;;;;;;;;;51.50;44.50;;;;;3.80;100.00;103170.81;5098229;27;45416;-74
2023/02/07 08:32:54;;;;;;;;;93.00;74.75;;;;;3.83;100.00;103154.06;5099155;27;45419;-75
2023/02/07 08:35:19;;;;;;;;;74.25;56.00;;;;;3.85;100.00;103158.31;5097848;27;45289;-75
2023/02/07 08:37:45;;;;;;;;;95.75;75.50;;;;;3.91;100.00;103165.94;5096232;27;45520;-74
2023/02/07 08:40:11;;;;;;;;;80.00;61.50;;;;;3.98;100.00;103168.28;5093845;27;47982;-74
2023/02/07 08:42:36;;;;;;;;;74.25;59.00;;;;;4.01;100.00;103173.41;5099352;27;45676;-75
2023/02/07 08:45:03;;;;;;;;;64.50;50.50;;;;;4.03;100.00;103168.91;5098655;27;45428;-75
2023/02/07 08:47:28;;;;;;;;;77.50;58.50;;;;;4.06;100.00;103171.41;5098213;27;45640;-75
2023/02/07 08:49:54;;;;;;;;;57.75;44.75;;;;;4.10;100.00;103167.69;5097851;27;48340;-74
2023/02/07 08:52:19;;;;;;;;;65.50;53.00;;;;;4.14;100.00;103161.41;5098881;27;45329;-75
2023/02/07 08:54:44;;;;;;;;;97.75;78.25;;;;;4.15;100.00;103159.59;5099341;27;45329;-74
2023/02/07 08:57:10;;;;;;;;;57.50;44.75;;;;;4.20;100.00;103149.72;5094422;27;46019;-75
2023/02/07 08:59:35;;;;;;;;;42.50;35.25;;;;;4.17;100.00;103153.31;5108136;27;45167;-76
2023/02/07 09:02:01;;;;;;;;;44.75;38.50;;;;;4.24;100.00;103166.19;5098541;27;49527;-75
2023/02/07 09:04:26;;;;;;;;;36.50;31.75;;;;;4.23;100.00;103161.88;5094492;27;45325;-75
2023/02/07 09:06:52;;;;;;;;;59.00;49.25;;;;;4.24;100.00;103167.06;5101133;27;45562;-73
2023/02/07 09:09:17;;;;;;;;;69.00;55.25;;;;;4.24;100.00;103168.84;5095836;27;46248;-75
2023/02/07 09:11:43;;;;;;;;;18.75;18.75;;;;;4.33;100.00;103175.44;5098563;27;45139;-75
2023/02/07 09:14:08;;;;;;;;;70.00;55.25;;;;;4.33;100.00;103168.41;5097931;27;45237;-75
2023/02/07 09:16:33;;;;;;;;;89.00;66.50;;;;;4.36;100.00;103176.16;5089645;27;45240;-74
2023/02/07 09:18:59;;;;;;;;;56.00;41.50;;;;;4.39;100.00;103183.91;5093282;27;46169;-74
2023/02/07 09:21:24;;;;;;;;;99.75;87.75;;;;;4.43;100.00;103184.63;5102237;27;48188;-75
2023/02/07 09:23:49;;;;;;;;;107.50;92.75;;;;;4.46;100.00;103194.16;5097504;27;45251;-75
2023/02/07 09:26:20;;;;;;;;;91.00;76.00;;;;;4.50;100.00;103196.59;5091283;27;46544;-75
2023/02/07 09:28:46;;;;;;;;;34.50;29.25;;;;;4.54;100.00;103199.91;5101849;27;45327;-75
2023/02/07 09:31:13;;;;;;;;;56.25;42.00;;;;;4.54;100.00;103205.19;5097495;27;45365;-74
2023/02/07 09:33:39;;;;;;;;;33.50;30.25;;;;;4.55;100.00;103197.19;5086768;27;45333;-75
2023/02/07 09:36:05;;;;;;;;;85.25;64.50;;;;;4.58;100.00;103201.47;5101877;27;45407;-75
2023/02/07 09:38:30;;;;;;;;;82.75;59.50;;;;;4.59;100.00;103203.19;5101950;27;45282;-74
2023/02/07 09:40:58;;;;;;;;;84.50;66.50;;;;;4.65;100.00;103213.44;5101818;27;45410;-74
2023/02/07 09:43:54;;;;;;;;;45.00;40.25;;;;;4.68;100.00;103215.06;5100757;27;45306;-74
2023/02/07 09:46:32;;;;;;;;;71.75;55.00;;;;;4.72;100.00;103207.84;5101724;27;45594;-75
2023/02/07 09:49:00;;;;;;;;;63.25;49.50;;;;;4.75;100.00;103219.09;5101833;27;46176;-75
2023/02/07 09:51:26;;;;;;;;;60.25;48.25;;;;;4.76;100.00;103217.34;5101753;27;45302;-75
2023/02/07 09:53:57;;;;;;;;;61.50;48.25;;;;;4.84;100.00;103216.94;5101898;27;45329;-78
2023/02/07 09:56:27;;;;;;;;;64.75;53.00;;;;;4.92;100.00;103231.47;5101447;27;45523;-75
2023/02/07 09:59:14;;;;;;;;;23.25;20.25;;;;;4.99;100.00;103228.50;5100063;27;48049;-75
2023/02/07 10:01:47;;;;;;;;;15.50;13.50;;;;;5.01;100.00;103219.63;5098936;27;46606;-75
2023/02/07 10:04:29;;;;;;;;;41.25;36.00;;;;;5.11;100.00;103227.91;5101769;27;45309;-75
2023/02/07 10:06:57;;;;;;;;;15.75;13.75;;;;;5.12;100.00;103220.84;5103469;27;47237;-75
2023/02/07 10:09:36;;;;;;;;;9.50;9.25;;;;;5.26;100.00;103212.22;5098520;27;45283;-79
2023/02/07 10:12:01;;;;;;;;;12.00;12.00;;;;;5.30;100.00;103229.63;5101239;27;45450;-75
2023/02/07 10:15:01;;;;;;;;;18.50;16.75;;;;;5.34;100.00;103228.53;5101609;27;45145;-75
2023/02/07 10:17:48;;;;;;;;;24.75;21.25;;;;;5.40;100.00;103228.22;5083853;27;46300;-74
2023/02/07 10:20:29;;;;;;;;;14.50;13.75;;;;;5.52;100.00;103228.53;5095387;27;45317;-74
2023/02/07 10:22:58;;;;;;;;;15.75;13.00;;;;;5.55;100.00;103231.00;5101417;27;45316;-75
2023/02/07 10:25:58;;;;;;;;;22.50;21.50;;;;;5.56;100.00;103225.66;5101194;27;45335;-76
2023/02/07 10:28:55;;;;;;;;;16.00;12.33;;;;;5.62;99.71;103227.09;5100516;27;45332;-77
2023/02/07 10:31:24;;;;;;;;;17.00;14.33;;;;;5.68;99.84;103221.50;5099837;27;48324;-76
2023/02/07 10:34:08;;;;;;;;;53.00;42.25;;;;;5.73;99.32;103220.41;5096922;27;45316;-76
2023/02/07 10:36:33;;;;;;;;;81.50;65.00;;;;;5.76;99.39;103218.47;5099040;27;45494;-77
2023/02/07 10:39:03;;;;;;;;;36.50;33.50;;;;;5.79;98.73;103212.19;5090760;27;47332;-77
2023/02/07 10:41:36;;;;;;;;;61.75;50.25;;;;;5.83;98.26;103213.72;5092069;27;48027;-77
2023/02/07 10:44:04;;;;;;;;;58.50;49.75;;;;;5.86;97.57;103215.31;5087016;27;45645;-75
2023/02/07 10:46:30;;;;;;;;;21.25;19.00;;;;;5.91;96.52;103224.72;5099061;27;45373;-76
2023/02/07 10:48:56;;;;;;;;;11.33;10.33;;;;;5.87;94.83;103214.41;5097503;27;45392;-77
2023/02/07 10:51:37;;;;;;;;;18.00;14.67;;;;;5.93;95.47;103224.66;5096165;27;47027;-76
2023/02/07 10:54:11;;;;;;;;;12.33;12.33;;;;;6.02;94.82;103234.69;5085027;27;45492;-77
2023/02/07 10:56:43;;;;;;;;;15.75;15.00;;;;;6.08;95.40;103235.34;5100358;27;45432;-76
2023/02/07 10:59:33;;;;;;;;;12.00;12.00;;;;;6.15;94.54;103236.72;5084496;27;46509;-78
2023/02/07 11:01:59;;;;;;;;;13.33;12.33;;;;;6.17;94.88;103227.75;5078181;27;45420;-77
2023/02/07 11:04:41;;;;;;;;;15.33;13.00;;;;;6.26;94.31;103225.56;5088682;27;45336;-76
2023/02/07 11:07:14;;;;;;;;;12.33;12.33;;;;;6.38;94.54;103216.94;5099125;27;45377;-75
2023/02/07 11:09:40;;;;;;;;;14.33;11.67;;;;;6.41;93.10;103213.31;5099957;27;45250;-75
2023/02/07 11:12:21;;;;;;;;;14.33;14.33;;;;;6.47;93.22;103207.69;5100346;27;46338;-77
2023/02/07 11:15:14;;;;;;;;;14.00;13.33;;;;;6.60;91.87;103228.09;5087095;27;45423;-76
2023/02/07 11:17:46;;;;;;;;;15.00;13.67;;;;;6.62;91.97;103203.31;5100883;27;45381;-76